Time;durP1;ratioP1;P1;durP2;ratioP2;P2;SDS_P1;SDS_P2;PMS_P1;PMS_P2;Temp;Humidity;BMP_temperature;BMP_pressure;BME280_temperature;BME280_humidity;BME280_pressure;Samples;Min_cycle;Max_cycle;Signal;HPM_P1;HPM_P2
2023/08/20 00:00:16;;;;;;;1.00;0.90;;;;;;;24.47;53.78;95423.47;5116153;28;20527;-53
2023/08/20 00:02:46;;;;;;;0.60;0.60;;;;;;;24.53;54.66;95424.78;5115786;28;20463;-53
2023/08/20 00:05:16;;;;;;;0.60;0.60;;;;;;;24.46;54.13;95411.84;5115550;28;20513;-53
2023/08/20 00:07:45;;;;;;;0.60;0.50;;;;;;;24.43;54.48;95414.50;5115628;28;20435;-53
2023/08/20 00:10:13;;;;;;;0.73;0.60;;;;;;;24.58;54.64;95410.94;5116185;28;20446;-53
2023/08/20 00:12:43;;;;;;;1.47;1.17;;;;;;;24.70;54.13;95410.03;5116013;28;20432;-53
2023/08/20 00:15:11;;;;;;;0.63;0.50;;;;;;;24.74;54.63;95383.78;5115858;28;20572;-53
2023/08/20 00:17:41;;;;;;;1.00;1.00;;;;;;;24.78;53.52;95403.63;5115579;28;20484;-53
2023/08/20 00:20:12;;;;;;;0.70;0.33;;;;;;;24.35;53.63;95351.25;5115814;28;20436;-53
2023/08/20 00:22:44;;;;;;;0.63;0.50;;;;;;;24.22;54.85;95327.34;5114665;28;20467;-53
2023/08/20 00:25:14;;;;;;;1.43;0.83;;;;;;;24.62;54.27;95390.13;5115413;28;20442;-53
2023/08/20 00:27:44;;;;;;;0.80;0.80;;;;;;;24.28;54.76;95350.31;5115832;28;20836;-53
2023/08/20 00:30:14;;;;;;;0.70;0.53;;;;;;;24.59;54.50;95382.72;5115288;28;20919;-53
2023/08/20 00:32:43;;;;;;;0.60;0.50;;;;;;;24.67;54.31;95376.28;5113454;28;20940;-53
2023/08/20 00:35:11;;;;;;;0.40;0.30;;;;;;;24.65;54.10;95384.00;5115157;28;20451;-53
2023/08/20 00:37:40;;;;;;;0.60;0.57;;;;;;;24.12;54.20;95306.25;5115444;28;20508;-54
2023/08/20 00:40:10;;;;;;;1.77;0.80;;;;;;;24.63;54.45;95386.28;5114318;28;20948;-53
2023/08/20 00:42:38;;;;;;;0.50;0.40;;;;;;;24.77;55.18;95375.72;5115179;28;20496;-53
2023/08/20 00:45:09;;;;;;;0.40;0.30;;;;;;;24.87;54.30;95375.16;5114879;28;20465;-53
2023/08/20 00:47:38;;;;;;;0.70;0.50;;;;;;;24.69;54.50;95375.94;5115659;28;20514;-53
2023/08/20 00:50:08;;;;;;;0.63;0.63;;;;;;;24.56;54.04;95372.59;5114750;28;20463;-53
2023/08/20 00:52:37;;;;;;;0.70;0.60;;;;;;;24.54;55.58;95378.34;5115844;27;20948;-53
2023/08/20 00:55:09;;;;;;;0.60;0.40;;;;;;;24.57;55.02;95376.84;5114737;28;20944;-53
2023/08/20 00:57:38;;;;;;;0.60;0.50;;;;;;;24.37;54.83;95367.94;5115116;28;20439;-53
2023/08/20 01:00:10;;;;;;;0.50;0.37;;;;;;;24.48;55.59;95374.38;5114460;28;20431;-53
2023/08/20 01:02:40;;;;;;;3.03;1.30;;;;;;;24.40;55.14;95374.56;5113765;28;20443;-53
2023/08/20 01:05:11;;;;;;;1.53;1.10;;;;;;;24.22;55.80;95370.69;5115039;28;20907;-53
2023/08/20 01:07:59;;;;;;;0.50;0.50;;;;;;;23.84;56.25;95369.44;5113368;28;20505;-53
2023/08/20 01:10:34;;;;;;;1.00;1.00;;;;;;;23.79;56.10;95371.63;5114032;28;20432;-53
2023/08/20 01:13:04;;;;;;;0.80;0.67;;;;;;;23.59;56.94;95319.38;5087836;28;20449;-53
2023/08/20 01:15:33;;;;;;;1.13;0.50;;;;;;;24.12;56.31;95368.53;5114206;28;20448;-53
2023/08/20 01:18:02;;;;;;;0.50;0.50;;;;;;;24.00;56.05;95370.22;5114069;28;20442;-53
2023/08/20 01:20:34;;;;;;;0.70;0.60;;;;;;;23.97;56.87;95362.78;5114247;28;20450;-53
2023/08/20 01:23:28;;;;;;;0.60;0.50;;;;;;;23.98;56.23;95358.16;5114889;28;20856;-53
2023/08/20 01:26:14;;;;;;;1.27;1.00;;;;;;;24.11;56.49;95373.16;5114417;28;20443;-53
2023/08/20 01:28:44;;;;;;;1.43;0.90;;;;;;;23.98;56.87;95369.00;5114317;28;20462;-53
2023/08/20 01:31:13;;;;;;;1.47;1.47;;;;;;;23.61;56.56;95300.06;5114966;28;20432;-53
2023/08/20 01:33:42;;;;;;;2.73;0.70;;;;;;;24.10;56.96;95368.91;5113986;28;20444;-53
2023/08/20 01:36:10;;;;;;;0.60;0.57;;;;;;;24.15;56.41;95367.84;5114733;28;20444;-53
2023/08/20 01:38:38;;;;;;;0.53;0.47;;;;;;;23.97;56.89;95354.66;5113684;28;20818;-52
2023/08/20 01:41:07;;;;;;;0.70;0.70;;;;;;;23.98;56.78;95353.50;5114093;28;20934;-53
2023/08/20 01:43:35;;;;;;;1.00;0.80;;;;;;;23.85;57.53;95362.91;5113738;28;20566;-52
2023/08/20 01:46:05;;;;;;;0.63;0.50;;;;;;;23.62;56.94;95332.19;5114446;28;20455;-53
2023/08/20 01:48:33;;;;;;;0.90;0.63;;;;;;;23.94;57.32;95360.78;5113895;28;21005;-53
2023/08/20 01:51:02;;;;;;;1.60;1.50;;;;;;;23.96;57.44;95363.13;5113910;28;21038;-53
2023/08/20 01:53:30;;;;;;;0.60;0.60;;;;;;;23.88;57.18;95361.41;5113778;28;20493;-53
2023/08/20 01:55:58;;;;;;;0.60;0.60;;;;;;;23.92;57.63;95363.06;5113699;28;20492;-53
2023/08/20 01:58:27;;;;;;;0.70;0.70;;;;;;;23.94;57.39;95354.56;5113270;28;20442;-53
2023/08/20 02:00:55;;;;;;;1.10;1.00;;;;;;;23.96;57.38;95358.50;5113706;28;20523;-53
2023/08/20 02:03:25;;;;;;;0.60;0.60;;;;;;;24.12;57.96;95360.41;5087806;28;20438;-52
2023/08/20 02:05:53;;;;;;;0.40;0.30;;;;;;;24.39;57.17;95351.31;5113617;28;20930;-53
2023/08/20 02:08:22;;;;;;;0.70;0.60;;;;;;;24.09;57.41;95350.28;5113805;28;20527;-53
2023/08/20 02:10:50;;;;;;;0.70;0.60;;;;;;;24.01;57.33;95354.72;5113247;28;20954;-53
2023/08/20 02:13:18;;;;;;;1.13;0.50;;;;;;;24.08;57.97;95351.44;5113292;28;20439;-53
2023/08/20 02:15:47;;;;;;;2.77;0.60;;;;;;;24.12;57.69;95357.69;5113525;28;20448;-53
2023/08/20 02:18:16;;;;;;;0.50;0.40;;;;;;;24.08;57.48;95362.25;5113887;28;20879;-53
2023/08/20 02:20:46;;;;;;;0.60;0.60;;;;;;;23.97;57.47;95359.28;5113128;28;20501;-53
2023/08/20 02:23:14;;;;;;;0.80;0.80;;;;;;;23.86;58.23;95356.34;5114044;28;20443;-53
2023/08/20 02:25:44;;;;;;;1.17;1.10;;;;;;;23.92;58.50;95356.84;5113203;28;20847;-52
2023/08/20 02:28:13;;;;;;;0.73;0.70;;;;;;;23.96;58.10;95366.63;5113212;28;20447;-53
2023/08/20 02:30:42;;;;;;;0.80;0.80;;;;;;;23.90;58.04;95364.53;5113340;28;20840;-53
2023/08/20 02:33:11;;;;;;;0.93;0.70;;;;;;;24.02;58.28;95356.31;5113269;28;20439;-52
2023/08/20 02:35:40;;;;;;;1.33;1.23;;;;;;;23.35;58.09;95284.38;5107242;28;20504;-53
2023/08/20 02:38:11;;;;;;;0.80;0.80;;;;;;;23.94;58.36;95360.78;5105864;28;20917;-52
2023/08/20 02:40:42;;;;;;;0.73;0.70;;;;;;;23.81;58.39;95364.72;5113136;28;20467;-52
2023/08/20 02:43:10;;;;;;;0.80;0.70;;;;;;;23.94;58.51;95357.28;5112998;28;21110;-53
2023/08/20 02:45:43;;;;;;;0.57;0.43;;;;;;;24.02;58.24;95361.72;5113317;28;20475;-52
2023/08/20 02:48:11;;;;;;;0.90;0.90;;;;;;;23.83;58.11;95365.16;5112523;28;20444;-52
2023/08/20 02:50:40;;;;;;;0.50;0.50;;;;;;;23.84;58.72;95372.16;5112689;28;20515;-53
2023/08/20 02:53:10;;;;;;;0.80;0.80;;;;;;;23.63;59.06;95360.81;5113019;28;20440;-52
2023/08/20 02:55:38;;;;;;;1.83;0.80;;;;;;;23.59;59.01;95364.56;5112929;28;20440;-53
2023/08/20 02:58:08;;;;;;;0.87;0.87;;;;;;;23.59;58.79;95359.16;5113117;28;20951;-53
2023/08/20 03:00:37;;;;;;;1.40;1.30;;;;;;;23.71;58.41;95369.88;5101167;28;20524;-53
2023/08/20 03:03:08;;;;;;;0.60;0.40;;;;;;;23.95;58.81;95366.97;5111153;28;20435;-53
2023/08/20 03:05:36;;;;;;;1.13;0.50;;;;;;;23.94;57.96;95368.91;5112554;28;20485;-53
2023/08/20 03:08:06;;;;;;;0.60;0.40;;;;;;;23.93;58.36;95363.84;5112712;27;20435;-53
2023/08/20 03:10:36;;;;;;;1.00;1.00;;;;;;;24.09;58.33;95366.53;5112608;28;20448;-53
2023/08/20 03:13:04;;;;;;;0.60;0.50;;;;;;;23.86;57.91;95363.66;5087035;28;20448;-53
2023/08/20 03:15:33;;;;;;;4.10;0.40;;;;;;;24.11;58.64;95365.03;5111925;28;20901;-53
2023/08/20 03:18:01;;;;;;;0.60;0.60;;;;;;;24.01;57.85;95360.94;5112578;28;20443;-53
2023/08/20 03:20:31;;;;;;;2.10;0.50;;;;;;;24.00;58.52;95361.28;5112037;28;20524;-53
2023/08/20 03:22:59;;;;;;;1.83;0.60;;;;;;;23.71;58.51;95357.16;5112557;28;20929;-53
2023/08/20 03:25:27;;;;;;;0.63;0.60;;;;;;;23.69;59.07;95362.13;5112277;28;20524;-53
2023/08/20 03:27:57;;;;;;;0.97;0.87;;;;;;;23.69;58.58;95364.03;5112390;28;20435;-54
2023/08/20 03:30:26;;;;;;;0.80;0.50;;;;;;;23.76;58.63;95354.16;5111280;28;20439;-53
2023/08/20 03:32:54;;;;;;;0.50;0.40;;;;;;;23.70;58.68;95349.38;5111988;28;20435;-53
2023/08/20 03:35:22;;;;;;;0.57;0.43;;;;;;;23.87;58.72;95359.81;5112330;28;20485;-53
2023/08/20 03:37:50;;;;;;;0.87;0.87;;;;;;;23.71;58.21;95359.84;5112539;28;20504;-53
2023/08/20 03:40:19;;;;;;;0.80;0.60;;;;;;;23.81;58.97;95362.03;5111215;28;20471;-52
2023/08/20 03:42:47;;;;;;;0.70;0.70;;;;;;;23.86;58.57;95353.63;5111986;28;20439;-52
2023/08/20 03:45:17;;;;;;;0.87;0.50;;;;;;;23.88;57.96;95359.47;5111063;28;20467;-52
2023/08/20 03:47:46;;;;;;;0.87;0.83;;;;;;;23.84;58.45;95366.72;5111947;28;20500;-52
2023/08/20 03:50:15;;;;;;;0.70;0.60;;;;;;;23.84;58.34;95364.03;5111539;28;20843;-52
2023/08/20 03:52:44;;;;;;;0.73;0.73;;;;;;;23.93;58.33;95361.91;5111246;28;20521;-52
2023/08/20 03:55:12;;;;;;;0.50;0.50;;;;;;;23.98;58.11;95364.34;5111826;28;20488;-52
2023/08/20 03:57:40;;;;;;;0.50;0.37;;;;;;;23.92;57.83;95356.84;5111216;28;20435;-52
2023/08/20 04:00:10;;;;;;;1.40;1.27;;;;;;;23.60;58.00;95323.66;5111794;28;20440;-52
2023/08/20 04:02:40;;;;;;;1.20;1.10;;;;;;;23.97;57.97;95368.19;5111673;28;20873;-52
2023/08/20 04:05:09;;;;;;;0.70;0.60;;;;;;;24.01;57.25;95371.75;5111938;28;20467;-51
2023/08/20 04:07:37;;;;;;;0.40;0.30;;;;;;;24.06;57.26;95370.69;5111720;28;20512;-52
2023/08/20 04:10:06;;;;;;;1.03;1.03;;;;;;;24.03;57.15;95366.78;5111706;28;20431;-51
2023/08/20 04:12:34;;;;;;;0.60;0.50;;;;;;;23.85;57.79;95354.00;5111469;28;20526;-52
2023/08/20 04:15:03;;;;;;;0.60;0.50;;;;;;;24.11;57.81;95372.41;5111543;28;20444;-52
2023/08/20 04:17:31;;;;;;;0.93;0.70;;;;;;;24.09;56.88;95364.59;5111601;28;20863;-51
2023/08/20 04:20:02;;;;;;;2.77;1.27;;;;;;;24.38;56.48;95374.13;5111357;28;20933;-52
2023/08/20 04:22:31;;;;;;;0.70;0.60;;;;;;;24.42;56.52;95375.78;5111625;28;20493;-52
2023/08/20 04:24:59;;;;;;;0.50;0.40;;;;;;;24.21;57.16;95375.31;5111833;28;20468;-51
2023/08/20 04:27:32;;;;;;;4.10;1.27;;;;;;;24.24;56.59;95373.81;5086075;28;20439;-51
2023/08/20 04:30:01;;;;;;;1.23;1.13;;;;;;;24.10;57.08;95374.31;5110843;28;20493;-51
2023/08/20 04:32:29;;;;;;;0.63;0.60;;;;;;;24.12;56.94;95363.91;5111601;28;20435;-51
2023/08/20 04:34:58;;;;;;;0.60;0.60;;;;;;;24.16;56.38;95367.47;5111613;28;20522;-52
2023/08/20 04:37:28;;;;;;;0.60;0.60;;;;;;;24.34;55.95;95365.13;5111283;28;20493;-51
2023/08/20 04:39:57;;;;;;;1.00;0.73;;;;;;;24.33;56.05;95377.13;5111155;28;20440;-51
2023/08/20 04:42:25;;;;;;;1.10;0.63;;;;;;;24.45;56.29;95377.00;5112782;28;20960;-51
2023/08/20 04:44:53;;;;;;;0.63;0.43;;;;;;;24.54;54.83;95370.22;5114917;28;20844;-51
2023/08/20 04:47:22;;;;;;;0.50;0.47;;;;;;;24.37;55.41;95369.84;5114881;28;20476;-50
2023/08/20 04:49:50;;;;;;;0.80;0.60;;;;;;;24.67;55.08;95375.53;5114743;28;20471;-50
2023/08/20 04:52:19;;;;;;;1.00;0.70;;;;;;;24.78;54.42;95373.81;5115065;28;20534;-50
2023/08/20 04:54:48;;;;;;;0.60;0.60;;;;;;;24.78;54.71;95369.19;5114714;28;20515;-50
2023/08/20 04:57:17;;;;;;;0.70;0.50;;;;;;;24.90;54.76;95362.81;5114087;28;20439;-50
2023/08/20 04:59:46;;;;;;;0.50;0.50;;;;;;;24.85;54.00;95368.53;5113903;28;20530;-50
2023/08/20 05:02:14;;;;;;;0.53;0.50;;;;;;;25.17;53.87;95370.69;5114815;28;20435;-50
2023/08/20 05:04:42;;;;;;;0.40;0.30;;;;;;;25.19;53.16;95367.63;5114641;28;20496;-50
2023/08/20 05:07:11;;;;;;;5.07;0.53;;;;;;;25.47;53.17;95370.06;5114953;28;20510;-50
2023/08/20 05:09:42;;;;;;;0.70;0.70;;;;;;;25.55;52.04;95367.09;5113826;28;20490;-51
2023/08/20 05:12:11;;;;;;;0.50;0.40;;;;;;;25.69;52.58;95361.13;5115186;28;20428;-50
2023/08/20 05:14:40;;;;;;;0.60;0.40;;;;;;;25.81;50.63;95366.34;5088887;28;20464;-51
2023/08/20 05:17:08;;;;;;;0.53;0.50;;;;;;;25.66;51.13;95370.00;5114767;27;20447;-49
2023/08/20 05:19:36;;;;;;;0.63;0.60;;;;;;;25.60;51.14;95376.88;5114595;28;20442;-49
2023/08/20 05:22:05;;;;;;;0.50;0.50;;;;;;;25.06;51.26;95299.22;5114940;28;20517;-50
2023/08/20 05:24:33;;;;;;;1.00;0.90;;;;;;;25.79;49.78;95379.50;5114512;28;20857;-54
2023/08/20 05:27:09;;;;;;;0.60;0.40;;;;;;;25.67;49.50;95358.00;5113978;28;20507;-50
2023/08/20 05:29:39;;;;;;;1.13;0.73;;;;;;;25.90;49.89;95369.59;5114504;28;20442;-50
2023/08/20 05:32:08;;;;;;;0.80;0.60;;;;;;;25.75;49.24;95381.41;5114429;28;20447;-50
2023/08/20 05:34:36;;;;;;;0.60;0.50;;;;;;;25.90;48.97;95369.59;5114268;28;20859;-50
2023/08/20 05:37:05;;;;;;;0.53;0.40;;;;;;;26.08;48.84;95373.38;5114628;28;20442;-50
2023/08/20 05:39:38;;;;;;;3.60;0.60;;;;;;;26.22;48.37;95376.31;5114307;28;20440;-50
2023/08/20 05:42:07;;;;;;;0.40;0.40;;;;;;;26.57;47.39;95372.47;5113854;28;20542;-51
2023/08/20 05:44:35;;;;;;;0.77;0.77;;;;;;;26.52;46.63;95372.81;5114605;28;20938;-51
2023/08/20 05:47:06;;;;;;;0.50;0.43;;;;;;;26.59;46.51;95379.13;5113949;28;20996;-51
2023/08/20 05:49:34;;;;;;;2.37;1.30;;;;;;;26.76;46.92;95375.06;5113843;28;20483;-51
2023/08/20 05:52:03;;;;;;;0.90;0.90;;;;;;;27.13;45.79;95370.44;5114548;28;20435;-50
2023/08/20 05:54:31;;;;;;;1.23;0.70;;;;;;;27.38;46.18;95370.69;5113508;28;20431;-51
2023/08/20 05:57:01;;;;;;;1.17;0.50;;;;;;;27.87;46.89;95371.16;5114080;28;20439;-51
2023/08/20 05:59:30;;;;;;;0.50;0.50;;;;;;;28.02;44.35;95374.78;5107165;28;20446;-52
2023/08/20 06:01:58;;;;;;;4.83;1.83;;;;;;;27.87;44.11;95362.97;5114025;28;20485;-53
2023/08/20 06:04:28;;;;;;;1.83;1.73;;;;;;;27.89;43.73;95376.22;5113457;28;20432;-53
2023/08/20 06:06:56;;;;;;;2.53;0.97;;;;;;;28.14;43.86;95377.19;5114066;28;20475;-51
2023/08/20 06:09:25;;;;;;;0.57;0.57;;;;;;;27.77;42.48;95325.56;5112805;28;20463;-55
2023/08/20 06:11:53;;;;;;;0.63;0.63;;;;;;;28.55;42.98;95372.38;5113806;28;20936;-54
2023/08/20 06:14:21;;;;;;;0.47;0.40;;;;;;;28.86;42.28;95374.50;5113597;28;20477;-53
2023/08/20 06:16:50;;;;;;;0.50;0.40;;;;;;;29.38;43.57;95375.81;5113749;28;20475;-55
2023/08/20 06:19:18;;;;;;;0.60;0.50;;;;;;;29.50;42.97;95365.28;5113311;28;20435;-53
2023/08/20 06:21:47;;;;;;;1.47;0.50;;;;;;;29.70;42.55;95359.47;5113414;28;20463;-54
2023/08/20 06:24:16;;;;;;;0.40;0.33;;;;;;;29.88;40.79;95358.28;5112964;28;20482;-55
2023/08/20 06:26:44;;;;;;;0.73;0.50;;;;;;;29.82;39.40;95313.44;5112529;28;20471;-55
2023/08/20 06:29:13;;;;;;;0.60;0.53;;;;;;;30.38;38.87;95358.25;5110784;28;21045;-55
2023/08/20 06:31:42;;;;;;;0.63;0.50;;;;;;;30.09;39.76;95358.28;5111238;28;20436;-55
2023/08/20 06:34:10;;;;;;;0.40;0.40;;;;;;;29.70;39.14;95308.34;5113027;28;20443;-55
2023/08/20 06:36:39;;;;;;;0.63;0.50;;;;;;;30.48;39.03;95351.97;5110934;28;20436;-55
2023/08/20 06:39:08;;;;;;;0.77;0.77;;;;;;;30.92;38.08;95349.47;5111731;28;20444;-56
2023/08/20 06:41:37;;;;;;;0.60;0.60;;;;;;;31.35;37.92;95350.00;5111272;28;20439;-56
2023/08/20 06:44:05;;;;;;;0.50;0.33;;;;;;;31.71;37.15;95354.09;5111282;28;20816;-56
2023/08/20 06:46:34;;;;;;;0.30;0.30;;;;;;;31.66;37.82;95353.72;5110490;28;20893;-56
2023/08/20 06:49:02;;;;;;;0.70;0.47;;;;;;;31.36;37.73;95344.13;5111094;28;20466;-56
2023/08/20 06:51:31;;;;;;;1.33;0.40;;;;;;;31.91;38.22;95354.31;5112748;28;20446;-57
2023/08/20 06:53:59;;;;;;;0.50;0.40;;;;;;;32.17;36.68;95355.66;5112744;28;20537;-58
2023/08/20 06:56:29;;;;;;;0.50;0.40;;;;;;;32.49;35.11;95343.16;5112603;28;20466;-58
2023/08/20 06:58:57;;;;;;;0.50;0.50;;;;;;;32.96;34.05;95340.69;5112929;28;20531;-59
2023/08/20 07:01:25;;;;;;;0.70;0.53;;;;;;;32.48;34.51;95338.88;5112515;28;20463;-58
2023/08/20 07:03:54;;;;;;;0.60;0.40;;;;;;;32.27;33.79;95338.31;5112125;28;20435;-58
2023/08/20 07:06:22;;;;;;;0.50;0.50;;;;;;;32.54;32.67;95341.97;5111515;28;20470;-59
2023/08/20 07:11:37;;;;;;;0.50;0.40;;;;;;;33.29;33.16;95336.31;5112927;28;20492;-58
2023/08/20 07:14:06;;;;;;;1.03;0.50;;;;;;;32.94;32.38;95337.56;5112264;28;20435;-58
2023/08/20 07:16:34;;;;;;;0.73;0.73;;;;;;;33.51;32.69;95340.31;5113124;28;20427;-58
2023/08/20 07:19:02;;;;;;;0.67;0.60;;;;;;;33.22;32.39;95350.94;5111730;28;20527;-58
2023/08/20 07:21:31;;;;;;;0.93;0.93;;;;;;;33.29;31.96;95341.81;5112563;28;20560;-57
2023/08/20 07:23:59;;;;;;;0.40;0.40;;;;;;;33.72;32.63;95337.25;5112255;28;20487;-57
2023/08/20 07:26:27;;;;;;;0.40;0.40;;;;;;;33.74;31.04;95323.88;5112372;28;20462;-57
2023/08/20 07:28:56;;;;;;;0.80;0.80;;;;;;;33.22;31.30;95334.44;5111999;28;20423;-57
2023/08/20 07:31:25;;;;;;;0.70;0.60;;;;;;;33.14;30.55;95341.25;5112003;28;20438;-57
2023/08/20 07:33:54;;;;;;;0.60;0.60;;;;;;;33.05;31.24;95270.34;5112302;28;20475;-57
2023/08/20 07:36:24;;;;;;;0.50;0.50;;;;;;;33.93;30.89;95319.63;5112405;28;20492;-56
2023/08/20 07:38:54;;;;;;;0.60;0.50;;;;;;;34.15;30.82;95316.13;5111636;28;21008;-56
2023/08/20 07:41:22;;;;;;;0.53;0.50;;;;;;;34.80;30.44;95324.69;5112129;28;20841;-55
2023/08/20 07:43:51;;;;;;;2.50;0.97;;;;;;;34.20;30.71;95292.84;5111627;28;20229;-55
2023/08/20 07:46:20;;;;;;;0.87;0.83;;;;;;;34.12;31.01;95314.19;5111417;28;20200;-56
2023/08/20 07:48:49;;;;;;;0.63;0.63;;;;;;;34.57;30.89;95314.53;5111506;28;20474;-56
2023/08/20 07:51:17;;;;;;;0.60;0.50;;;;;;;34.76;30.23;95315.75;5111968;28;20219;-55
2023/08/20 07:53:45;;;;;;;0.70;0.70;;;;;;;34.62;30.48;95307.75;5111879;28;20203;-56
2023/08/20 07:56:14;;;;;;;0.50;0.50;;;;;;;35.26;30.76;95304.44;5111868;28;20200;-56
2023/08/20 07:58:42;;;;;;;0.60;0.60;;;;;;;35.05;29.79;95308.44;5112071;28;20228;-56
2023/08/20 08:01:11;;;;;;;0.60;0.43;;;;;;;35.06;29.31;95285.22;5111887;28;20193;-56
2023/08/20 08:03:41;;;;;;;0.70;0.37;;;;;;;35.05;30.10;95300.19;5111724;28;20643;-55
2023/08/20 08:06:10;;;;;;;0.47;0.40;;;;;;;35.53;29.16;95292.00;5111205;28;20249;-56
2023/08/20 08:08:43;;;;;;;0.50;0.40;;;;;;;36.33;28.95;95286.81;5111842;28;20217;-55
2023/08/20 08:11:11;;;;;;;0.63;0.40;;;;;;;36.31;27.66;95288.03;5111180;28;20246;-55
2023/08/20 08:13:39;;;;;;;0.40;0.33;;;;;;;36.37;28.72;95285.50;5111911;28;20207;-56
2023/08/20 08:16:08;;;;;;;0.40;0.35;;;;;;;36.98;29.20;95285.38;5111528;28;20197;-56
2023/08/20 08:18:36;;;;;;;0.40;0.30;;;;;;;36.59;27.97;95285.72;5115795;28;20279;-56
2023/08/20 08:21:06;;;;;;;0.40;0.32;;;;;;;36.49;26.98;95284.81;5115669;28;20197;-56
2023/08/20 08:23:34;;;;;;;0.95;0.47;;;;;;;36.15;27.92;95284.56;5114970;28;20193;-55
2023/08/20 08:26:02;;;;;;;0.50;0.40;;;;;;;36.30;27.57;95280.19;5115456;28;20197;-55
2023/08/20 08:28:31;;;;;;;0.63;0.63;;;;;;;36.63;27.04;95280.88;5115443;28;20299;-56
2023/08/20 08:30:59;;;;;;;0.40;0.40;;;;;;;36.71;26.02;95282.97;5115742;28;20685;-56
2023/08/20 08:33:28;;;;;;;0.40;0.30;;;;;;;37.75;26.31;95270.34;5115211;28;20683;-55
2023/08/20 08:35:56;;;;;;;0.40;0.32;;;;;;;38.34;25.53;95275.81;5115593;28;20193;-55
2023/08/20 08:38:26;;;;;;;0.40;0.40;;;;;;;39.04;25.04;95268.91;5115410;28;20208;-55
2023/08/20 08:40:56;;;;;;;0.40;0.30;;;;;;;38.37;24.67;95269.41;5115422;28;20275;-55
2023/08/20 08:43:25;;;;;;;0.40;0.40;;;;;;;37.47;25.74;95274.81;5115086;28;20191;-55
2023/08/20 08:45:57;;;;;;;0.77;0.60;;;;;;;36.73;24.30;95221.78;5115683;27;20197;-56
2023/08/20 08:48:27;;;;;;;0.30;0.20;;;;;;;37.67;26.47;95278.09;5114837;28;20579;-55
2023/08/20 08:50:56;;;;;;;0.68;0.68;;;;;;;38.03;24.89;95267.38;5115042;28;20250;-55
2023/08/20 08:53:26;;;;;;;0.40;0.40;;;;;;;37.85;25.62;95280.31;5115337;28;20268;-56
2023/08/20 08:55:55;;;;;;;0.32;0.30;;;;;;;38.39;25.46;95263.41;5115028;28;20206;-55
2023/08/20 08:58:23;;;;;;;0.40;0.30;;;;;;;38.26;25.10;95257.88;5115463;28;20623;-57
2023/08/20 09:00:51;;;;;;;0.30;0.30;;;;;;;38.56;24.13;95259.97;5101624;28;20258;-56
2023/08/20 09:03:20;;;;;;;0.40;0.35;;;;;;;39.07;24.60;95254.91;5102393;28;20590;-56
2023/08/20 09:05:49;;;;;;;0.52;0.52;;;;;;;39.15;23.96;95258.16;5115114;28;20189;-56
2023/08/20 09:08:21;;;;;;;0.30;0.30;;;;;;;39.25;22.28;95245.91;5114914;28;20265;-56
2023/08/20 09:10:53;;;;;;;0.30;0.30;;;;;;;39.50;24.80;95245.69;5114478;27;20208;-56
2023/08/20 09:13:24;;;;;;;0.40;0.40;;;;;;;38.95;22.38;95241.91;5114593;28;20205;-56
2023/08/20 09:15:54;;;;;;;0.32;0.32;;;;;;;38.20;23.82;95239.53;5100756;28;20678;-56
2023/08/20 09:18:22;;;;;;;0.50;0.50;;;;;;;38.98;22.86;95231.91;5114492;28;20204;-56
2023/08/20 09:20:51;;;;;;;0.30;0.30;;;;;;;38.20;23.49;95231.25;5114215;28;20255;-57
2023/08/20 09:23:19;;;;;;;0.60;0.60;;;;;;;38.61;23.24;95228.13;5114971;28;20275;-57
2023/08/20 09:25:48;;;;;;;0.47;0.40;;;;;;;39.41;23.19;95234.56;5114312;28;20275;-56
2023/08/20 09:28:18;;;;;;;0.30;0.30;;;;;;;39.81;22.60;95237.28;5113609;28;20292;-56
2023/08/20 09:31:01;;;;;;;0.40;0.40;;;;;;;39.30;21.13;95232.22;5114304;28;20716;-56
2023/08/20 09:33:31;;;;;;;0.50;0.40;;;;;;;39.03;23.19;95236.88;5114537;28;20281;-57
2023/08/20 09:35:59;;;;;;;1.10;0.38;;;;;;;38.44;23.74;95240.66;5114363;28;20238;-57
2023/08/20 09:38:28;;;;;;;0.50;0.40;;;;;;;38.79;23.06;95244.16;5113791;28;20197;-57
2023/08/20 09:40:58;;;;;;;0.40;0.40;;;;;;;38.17;24.25;95230.13;5114076;28;20193;-57
2023/08/20 09:43:31;;;;;;;0.30;0.30;;;;;;;38.15;25.41;95246.44;5114095;28;20250;-57
2023/08/20 09:46:03;;;;;;;0.47;0.47;;;;;;;37.88;24.14;95230.34;5114128;28;20215;-57
2023/08/20 09:48:35;;;;;;;0.30;0.30;;;;;;;38.46;24.89;95221.59;5099989;28;20259;-56
2023/08/20 09:51:07;;;;;;;0.52;0.40;;;;;;;38.62;24.30;95224.94;5114184;28;20281;-56
2023/08/20 09:53:38;;;;;;;0.30;0.30;;;;;;;38.69;25.35;95224.66;5114082;28;20641;-57
2023/08/20 09:56:14;;;;;;;0.32;0.28;;;;;;;38.85;25.04;95225.69;5114302;28;20192;-56
2023/08/20 09:58:45;;;;;;;0.50;0.40;;;;;;;38.71;23.96;95222.19;5113948;28;20220;-57
2023/08/20 10:01:14;;;;;;;0.52;0.52;;;;;;;38.40;23.20;95223.41;5113541;28;20257;-57
2023/08/20 10:03:44;;;;;;;0.82;0.50;;;;;;;38.65;22.59;95217.72;5113562;28;20203;-56
2023/08/20 10:06:12;;;;;;;1.05;0.40;;;;;;;37.93;23.20;95217.94;5113691;28;20246;-57
2023/08/20 10:08:41;;;;;;;0.38;0.30;;;;;;;38.21;23.26;95203.09;5113778;28;20216;-56
2023/08/20 10:11:09;;;;;;;0.73;0.40;;;;;;;37.62;24.77;95205.97;5113093;28;20276;-56
2023/08/20 10:13:38;;;;;;;0.60;0.60;;;;;;;38.29;24.16;95200.84;5113591;28;20204;-57
2023/08/20 10:16:08;;;;;;;0.30;0.30;;;;;;;38.43;24.96;95201.09;5113598;28;20196;-56
2023/08/20 10:18:36;;;;;;;0.73;0.73;;;;;;;38.67;22.92;95206.94;5113820;28;20228;-56
2023/08/20 10:21:07;;;;;;;0.40;0.40;;;;;;;39.07;23.42;95205.00;5113187;28;20196;-56
2023/08/20 10:23:36;;;;;;;0.40;0.40;;;;;;;38.63;23.10;95189.69;5113372;28;20193;-56
2023/08/20 10:26:09;;;;;;;0.30;0.30;;;;;;;38.77;24.08;95199.47;5104870;28;20189;-56
2023/08/20 10:28:38;;;;;;;0.40;0.30;;;;;;;38.65;22.55;95193.56;5107795;28;20633;-57
2023/08/20 10:31:10;;;;;;;0.40;0.30;;;;;;;38.31;24.11;95192.88;5112435;28;20201;-56
2023/08/20 10:33:40;;;;;;;1.10;0.43;;;;;;;38.45;24.05;95197.91;5113267;28;20275;-57
2023/08/20 10:36:09;;;;;;;0.60;0.52;;;;;;;37.97;22.78;95185.41;5112833;28;20239;-58
2023/08/20 10:38:38;;;;;;;0.50;0.47;;;;;;;38.44;23.01;95176.97;5113011;28;20241;-57
2023/08/20 10:41:09;;;;;;;1.05;0.30;;;;;;;38.94;23.04;95190.47;5112851;28;20671;-57
2023/08/20 10:43:39;;;;;;;0.60;0.60;;;;;;;38.55;22.27;95186.44;5112732;28;20205;-57
2023/08/20 10:46:30;;;;;;;0.50;0.30;;;;;;;38.77;23.48;95191.94;5112806;28;20683;-57
2023/08/20 10:49:00;;;;;;;0.40;0.30;;;;;;;37.98;22.06;95182.16;5089942;28;20232;-57
2023/08/20 10:51:29;;;;;;;0.40;0.30;;;;;;;37.83;22.62;95192.16;5112594;28;20212;-57
2023/08/20 10:54:06;;;;;;;1.13;1.10;;;;;;;38.97;22.81;95194.31;5113025;28;20204;-58
2023/08/20 10:56:42;;;;;;;0.30;0.20;;;;;;;39.74;22.69;95187.66;5111565;28;20197;-57
2023/08/20 10:59:15;;;;;;;0.63;0.60;;;;;;;40.14;22.39;95184.72;5112790;28;20201;-57
2023/08/20 11:01:46;;;;;;;0.30;0.30;;;;;;;39.90;22.01;95185.31;5086402;28;20240;-57
2023/08/20 11:04:16;;;;;;;0.30;0.30;;;;;;;40.65;22.20;95182.03;5112194;28;20276;-55
2023/08/20 11:06:44;;;;;;;1.98;0.57;;;;;;;39.38;22.44;95166.13;5112823;28;20605;-56
2023/08/20 11:09:13;;;;;;;0.30;0.30;;;;;;;39.17;22.37;95172.53;5111867;28;20213;-56
2023/08/20 11:11:42;;;;;;;0.40;0.40;;;;;;;39.25;22.61;95166.28;5112651;28;20636;-57
2023/08/20 11:14:14;;;;;;;0.40;0.40;;;;;;;38.69;23.57;95187.88;5112086;28;20556;-56
2023/08/20 11:16:45;;;;;;;0.50;0.50;;;;;;;38.35;22.85;95183.22;5112444;28;20575;-56
2023/08/20 11:19:13;;;;;;;0.40;0.40;;;;;;;38.74;22.57;95170.69;5112213;28;20224;-56
2023/08/20 11:21:42;;;;;;;0.50;0.50;;;;;;;38.15;23.39;95177.22;5112631;28;20254;-57
2023/08/20 11:24:11;;;;;;;0.20;0.20;;;;;;;38.41;24.46;95170.31;5112101;28;20889;-56
2023/08/20 11:26:40;;;;;;;0.35;0.35;;;;;;;38.69;24.17;95179.56;5112505;28;20220;-56
2023/08/20 11:29:09;;;;;;;0.98;0.40;;;;;;;39.53;23.75;95169.09;5111978;28;20219;-56
2023/08/20 11:31:38;;;;;;;0.52;0.52;;;;;;;39.57;24.02;95164.94;5112305;28;20270;-56
2023/08/20 11:34:08;;;;;;;0.30;0.30;;;;;;;40.04;23.44;95166.53;5111519;28;20276;-56
2023/08/20 11:36:36;;;;;;;0.63;0.30;;;;;;;39.83;22.92;95163.44;5111840;28;20284;-56
2023/08/20 11:39:05;;;;;;;0.40;0.32;;;;;;;40.05;23.02;95157.75;5111990;28;20262;-56
2023/08/20 11:41:37;;;;;;;0.40;0.30;;;;;;;41.18;23.18;95144.16;5112154;28;20193;-56
2023/08/20 11:44:06;;;;;;;0.43;0.43;;;;;;;40.84;21.65;95119.56;5114131;28;20214;-56
2023/08/20 11:46:42;;;;;;;0.30;0.30;;;;;;;40.94;22.33;95169.13;5112176;28;20231;-56